createdAt,value
2024-05-09T00:00:35.503Z,12.27
2024-05-09T00:03:10.430Z,12.73
2024-05-09T00:05:38.595Z,13.47
2024-05-09T00:08:06.579Z,12.13
2024-05-09T00:10:37.219Z,13.07
2024-05-09T00:13:10.203Z,12.03
2024-05-09T00:15:37.399Z,12.53
2024-05-09T00:18:05.436Z,11.67
2024-05-09T00:20:38.021Z,12.30
2024-05-09T00:23:08.440Z,12.23
2024-05-09T00:25:35.625Z,11.67
2024-05-09T00:28:02.408Z,11.57
2024-05-09T00:30:34.299Z,12.90
2024-05-09T00:33:04.860Z,12.23
2024-05-09T00:35:32.286Z,11.83
2024-05-09T00:37:58.961Z,11.03
2024-05-09T00:40:35.349Z,13.10
2024-05-09T00:43:06.527Z,12.97
2024-05-09T00:45:34.724Z,11.70
2024-05-09T00:48:04.910Z,12.37
2024-05-09T00:50:38.154Z,11.97
2024-05-09T00:53:07.592Z,12.20
2024-05-09T00:55:35.403Z,12.40
2024-05-09T00:58:03.199Z,12.67
2024-05-09T01:00:37.823Z,13.27
2024-05-09T01:03:07.125Z,13.17
2024-05-09T01:05:34.689Z,13.20
2024-05-09T01:08:02.287Z,13.40
2024-05-09T01:10:34.316Z,12.80
2024-05-09T01:13:06.495Z,13.23
2024-05-09T01:15:34.412Z,13.00
2024-05-09T01:18:04.287Z,12.80
2024-05-09T01:20:40.019Z,13.00
2024-05-09T01:23:10.302Z,13.47
2024-05-09T01:25:37.159Z,12.37
2024-05-09T01:28:04.018Z,14.37
2024-05-09T01:30:34.486Z,13.17
2024-05-09T01:33:04.169Z,13.27
2024-05-09T01:35:31.187Z,13.17
2024-05-09T01:37:57.847Z,13.20
2024-05-09T01:40:33.543Z,13.57
2024-05-09T01:43:04.617Z,13.37
2024-05-09T01:45:31.380Z,12.33
2024-05-09T01:47:58.238Z,12.97
2024-05-09T01:50:36.248Z,13.30
2024-05-09T01:53:06.817Z,12.53
2024-05-09T01:55:33.417Z,12.93
2024-05-09T01:57:59.959Z,12.00
2024-05-09T02:00:36.301Z,12.00
2024-05-09T02:03:08.988Z,12.43
2024-05-09T02:05:36.023Z,12.80
2024-05-09T02:08:02.618Z,13.07
2024-05-09T02:10:32.655Z,12.23
2024-05-09T02:13:00.053Z,12.93
2024-05-09T02:15:26.555Z,13.37
2024-05-09T02:17:53.320Z,12.13
2024-05-09T02:20:30.035Z,12.47
2024-05-09T02:23:04.125Z,13.30
2024-05-09T02:25:31.410Z,13.13
2024-05-09T02:27:58.093Z,12.50
2024-05-09T02:30:31.168Z,13.20
2024-05-09T02:33:05.944Z,13.87
2024-05-09T02:35:32.707Z,13.13
2024-05-09T02:37:59.357Z,14.10
2024-05-09T02:40:35.041Z,14.03
2024-05-09T02:43:04.211Z,13.80
2024-05-09T02:45:31.697Z,12.60
2024-05-09T02:47:58.747Z,12.73
2024-05-09T02:50:33.698Z,13.03
2024-05-09T02:53:05.106Z,13.30
2024-05-09T02:55:31.778Z,13.30
2024-05-09T02:57:58.343Z,12.80
2024-05-09T03:00:34.215Z,11.47
2024-05-09T03:03:06.746Z,12.47
2024-05-09T03:05:33.711Z,12.27
2024-05-09T03:08:00.304Z,11.83
2024-05-09T03:10:29.118Z,12.23
2024-05-09T03:13:05.818Z,12.83
2024-05-09T03:15:32.948Z,12.20
2024-05-09T03:18:00.194Z,12.40
2024-05-09T03:20:33.009Z,13.03
2024-05-09T03:23:01.937Z,13.37
2024-05-09T03:25:28.447Z,12.03
2024-05-09T03:27:55.005Z,12.57
2024-05-09T03:30:30.998Z,12.97
2024-05-09T03:33:10.419Z,13.27
2024-05-09T03:35:37.160Z,12.67
2024-05-09T03:38:03.958Z,12.37
2024-05-09T03:40:31.257Z,12.77
2024-05-09T03:42:58.857Z,13.10
2024-05-09T03:45:25.481Z,12.33
2024-05-09T03:47:52.667Z,12.67
2024-05-09T03:50:29.520Z,12.50
2024-05-09T03:53:00.354Z,13.60
2024-05-09T03:55:27.009Z,14.70
2024-05-09T03:57:53.695Z,14.57
2024-05-09T04:00:30.402Z,13.97
2024-05-09T04:03:02.455Z,13.73
2024-05-09T04:05:30.925Z,14.37
2024-05-09T04:07:57.729Z,13.80
2024-05-09T04:10:31.175Z,14.17
2024-05-09T04:13:00.356Z,14.10
2024-05-09T04:15:26.895Z,14.43
2024-05-09T04:17:53.785Z,13.77
2024-05-09T04:20:29.388Z,13.50
2024-05-09T04:23:04.260Z,13.23
2024-05-09T04:25:31.863Z,13.60
2024-05-09T04:27:58.347Z,13.30
2024-05-09T04:30:34.434Z,13.33
2024-05-09T04:33:05.696Z,14.30
2024-05-09T04:35:32.589Z,12.67
2024-05-09T04:37:59.274Z,14.10
2024-05-09T04:40:33.006Z,14.47
2024-05-09T04:43:02.481Z,14.40
2024-05-09T04:45:29.036Z,16.33
2024-05-09T04:47:55.887Z,15.27
2024-05-09T04:50:30.192Z,15.53
2024-05-09T04:53:03.064Z,17.23
2024-05-09T04:55:29.671Z,19.80
2024-05-09T04:57:56.286Z,19.73
2024-05-09T05:00:32.252Z,19.70
2024-05-09T05:03:07.027Z,19.40
2024-05-09T05:05:37.331Z,18.60
2024-05-09T05:08:04.186Z,18.30
2024-05-09T05:10:35.854Z,17.87
2024-05-09T05:13:18.126Z,17.33
2024-05-09T05:15:46.590Z,17.00
2024-05-09T05:18:14.935Z,18.63
2024-05-09T05:20:42.443Z,18.87
2024-05-09T05:23:12.311Z,20.77
2024-05-09T05:25:39.654Z,21.60
2024-05-09T05:28:06.672Z,22.77
2024-05-09T05:30:40.133Z,23.47
2024-05-09T05:33:09.927Z,26.70
2024-05-09T05:35:37.063Z,28.50
2024-05-09T05:38:04.086Z,28.53
2024-05-09T05:40:36.438Z,31.80
2024-05-09T05:43:08.986Z,32.33
2024-05-09T05:45:35.987Z,34.30
2024-05-09T05:48:06.784Z,33.77
2024-05-09T05:50:36.834Z,33.80
2024-05-09T05:53:06.472Z,31.77
2024-05-09T05:55:33.354Z,32.97
2024-05-09T05:58:01.489Z,32.80
2024-05-09T06:00:34.865Z,34.67
2024-05-09T06:03:05.413Z,33.77
2024-05-09T06:05:32.746Z,32.07
2024-05-09T06:07:59.485Z,32.23
2024-05-09T06:10:30.589Z,32.90
2024-05-09T06:13:04.517Z,34.27
2024-05-09T06:15:31.042Z,33.73
2024-05-09T06:17:57.694Z,34.53
2024-05-09T06:20:33.927Z,33.07
2024-05-09T06:23:03.460Z,32.03
2024-05-09T06:25:30.184Z,30.87
2024-05-09T06:27:56.754Z,33.43
2024-05-09T06:30:30.355Z,34.13
2024-05-09T06:33:05.954Z,34.70
2024-05-09T06:35:33.710Z,35.50
2024-05-09T06:38:01.235Z,33.87
2024-05-09T06:40:35.796Z,33.30
2024-05-09T06:43:05.047Z,32.80
2024-05-09T06:45:31.855Z,32.70
2024-05-09T06:47:58.552Z,33.10
2024-05-09T06:50:28.357Z,32.30
2024-05-09T06:52:58.829Z,32.43
2024-05-09T06:55:25.347Z,33.00
2024-05-09T06:57:52.314Z,33.63
2024-05-09T07:00:27.234Z,34.07
2024-05-09T07:03:05.476Z,34.03
2024-05-09T07:05:33.244Z,34.13
2024-05-09T07:08:00.897Z,34.50
2024-05-09T07:10:33.096Z,34.17
2024-05-09T07:13:01.952Z,35.47
2024-05-09T07:15:28.481Z,37.27
2024-05-09T07:17:55.299Z,36.53
2024-05-09T07:20:31.704Z,36.67
2024-05-09T07:23:02.831Z,35.97
2024-05-09T07:25:29.685Z,36.43
2024-05-09T07:27:56.607Z,36.47
2024-05-09T07:30:27.914Z,36.20
2024-05-09T07:33:00.515Z,35.77
2024-05-09T07:35:27.625Z,36.23
2024-05-09T07:37:54.623Z,35.93
2024-05-09T07:40:31.705Z,35.17
2024-05-09T07:43:11.674Z,34.40
2024-05-09T07:45:48.534Z,34.00
2024-05-09T07:53:38.600Z,32.07
2024-05-09T07:56:07.520Z,33.47
2024-05-09T07:58:34.454Z,33.80
2024-05-09T08:01:02.594Z,35.53
2024-05-09T08:03:29.493Z,34.00
2024-05-09T08:05:56.114Z,35.20
2024-05-09T08:08:22.898Z,34.57
2024-05-09T08:10:50.483Z,34.17
2024-05-09T08:13:17.123Z,35.70
2024-05-09T08:15:43.660Z,35.10
2024-05-09T08:18:10.497Z,36.63
2024-05-09T08:20:38.730Z,35.47
2024-05-09T08:23:05.674Z,32.13
2024-05-09T08:25:32.264Z,30.07
2024-05-09T08:27:58.834Z,32.27
2024-05-09T08:30:32.652Z,31.50
2024-05-09T08:33:04.171Z,31.03
2024-05-09T08:35:31.875Z,30.50
2024-05-09T08:37:58.635Z,31.27
2024-05-09T08:40:32.922Z,32.10
2024-05-09T08:43:02.645Z,33.13
2024-05-09T08:45:30.163Z,33.33
2024-05-09T08:48:00.321Z,32.33
2024-05-09T08:50:35.477Z,32.20
2024-05-09T08:53:05.446Z,29.50
2024-05-09T08:55:32.324Z,29.20
2024-05-09T08:58:00.774Z,28.63
2024-05-09T09:00:35.880Z,27.33
2024-05-09T09:03:06.740Z,27.40
2024-05-09T09:05:37.947Z,25.53
2024-05-09T09:08:07.521Z,27.50
2024-05-09T09:10:34.206Z,24.80
2024-05-09T09:13:05.255Z,22.27
2024-05-09T09:15:32.647Z,22.47
2024-05-09T09:18:01.098Z,24.73
2024-05-09T09:20:35.807Z,22.50
2024-05-09T09:23:04.499Z,21.93
2024-05-09T09:25:31.650Z,21.03
2024-05-09T09:27:58.742Z,21.60
2024-05-09T09:30:35.126Z,20.80
2024-05-09T09:33:05.223Z,19.93
2024-05-09T09:35:32.675Z,17.60
2024-05-09T09:38:03.221Z,19.23
2024-05-09T09:40:37.211Z,16.67
2024-05-09T09:43:14.005Z,15.97
2024-05-09T09:45:43.613Z,15.50
2024-05-09T09:48:10.828Z,16.50
2024-05-09T09:50:37.842Z,15.07
2024-05-09T09:53:07.008Z,16.63
2024-05-09T09:55:34.703Z,14.10
2024-05-09T09:58:01.412Z,12.07
2024-05-09T10:00:32.973Z,12.43
2024-05-09T10:03:01.449Z,12.20
2024-05-09T10:05:29.209Z,6.63
2024-05-09T10:07:57.349Z,6.17
2024-05-09T10:10:31.719Z,2.90
2024-05-09T10:13:08.896Z,3.20
2024-05-09T10:15:53.995Z,5.07
2024-05-09T10:18:30.200Z,4.70
2024-05-09T10:20:59.421Z,4.77
2024-05-09T10:23:26.573Z,6.17
2024-05-09T10:26:05.316Z,6.20
2024-05-09T10:28:36.985Z,5.43
2024-05-09T10:31:08.689Z,6.80
2024-05-09T10:33:40.059Z,6.13
2024-05-09T10:36:14.161Z,6.40
2024-05-09T10:38:43.797Z,6.53
2024-05-09T10:41:11.610Z,6.60
2024-05-09T10:43:40.099Z,6.97
2024-05-09T10:46:07.737Z,6.40
2024-05-09T10:48:35.741Z,6.37
2024-05-09T10:51:02.538Z,6.37
2024-05-09T10:53:29.138Z,6.23
2024-05-09T10:55:59.993Z,5.77
2024-05-09T10:58:27.664Z,5.30
2024-05-09T11:00:57.790Z,6.33
2024-05-09T11:03:25.441Z,5.87
2024-05-09T11:05:53.255Z,6.20
2024-05-09T11:08:23.290Z,6.30
2024-05-09T11:10:54.183Z,7.20
2024-05-09T11:13:31.966Z,6.87
2024-05-09T11:15:59.973Z,6.30
2024-05-09T11:18:30.396Z,6.13
2024-05-09T11:20:59.845Z,7.00
2024-05-09T11:23:27.900Z,6.67
2024-05-09T11:25:55.636Z,6.93
2024-05-09T11:28:23.125Z,6.80
2024-05-09T11:30:50.700Z,6.57
2024-05-09T11:33:18.856Z,6.23
2024-05-09T11:35:46.564Z,6.80
2024-05-09T11:38:13.568Z,6.33
2024-05-09T11:40:40.638Z,6.20
2024-05-09T11:43:07.352Z,6.73
2024-05-09T11:45:33.954Z,6.27
2024-05-09T11:48:00.762Z,5.87
2024-05-09T11:50:32.994Z,5.80
2024-05-09T11:53:02.288Z,5.43
2024-05-09T11:55:29.210Z,5.90
2024-05-09T11:57:56.101Z,5.97
2024-05-09T12:00:29.739Z,6.07
2024-05-09T12:03:05.169Z,6.17
2024-05-09T12:05:33.152Z,5.67
2024-05-09T12:08:00.750Z,5.50
2024-05-09T12:10:33.137Z,6.60
2024-05-09T12:13:02.646Z,6.93
2024-05-09T12:15:29.777Z,7.27
2024-05-09T12:17:58.929Z,6.10
2024-05-09T12:20:35.310Z,5.93
2024-05-09T12:23:05.481Z,6.63
2024-05-09T12:25:32.114Z,5.63
2024-05-09T12:27:58.894Z,5.10
2024-05-09T12:30:35.036Z,4.25
2024-05-09T12:33:05.697Z,5.10
2024-05-09T12:35:32.675Z,6.20
2024-05-09T12:37:59.275Z,6.53
2024-05-09T12:40:34.407Z,5.85
2024-05-09T12:43:04.498Z,6.25
2024-05-09T12:45:31.396Z,6.22
2024-05-09T12:47:58.399Z,7.22
2024-05-09T12:50:31.736Z,6.60
2024-05-09T12:53:00.492Z,6.25
2024-05-09T12:55:28.348Z,7.22
2024-05-09T12:57:56.715Z,8.05
2024-05-09T13:00:28.256Z,7.70
2024-05-09T13:03:00.652Z,7.90
2024-05-09T13:05:28.049Z,8.70
2024-05-09T13:07:56.336Z,9.15
2024-05-09T13:10:29.443Z,9.50
2024-05-09T13:12:59.961Z,11.30
2024-05-09T13:15:26.937Z,9.50
2024-05-09T13:17:54.128Z,8.40
2024-05-09T13:20:29.228Z,8.43
2024-05-09T13:23:01.694Z,7.67
2024-05-09T13:25:28.482Z,6.50
2024-05-09T13:27:55.973Z,7.23
2024-05-09T13:30:29.607Z,7.30
2024-05-09T13:33:05.873Z,7.67
2024-05-09T13:35:34.269Z,7.30
2024-05-09T13:38:01.790Z,7.50
2024-05-09T13:40:33.601Z,7.27
2024-05-09T13:43:02.886Z,6.17
2024-05-09T13:45:29.696Z,6.33
2024-05-09T13:47:56.725Z,7.43
2024-05-09T13:50:31.338Z,7.30
2024-05-09T13:53:02.042Z,9.17
2024-05-09T13:55:28.665Z,7.67
2024-05-09T13:57:55.423Z,6.97
2024-05-09T14:00:37.647Z,6.70
2024-05-09T14:03:08.923Z,5.20
2024-05-09T14:05:36.125Z,4.80
2024-05-09T14:08:03.111Z,5.30
2024-05-09T14:10:31.763Z,5.90
2024-05-09T14:12:59.772Z,6.30
2024-05-09T14:15:26.491Z,6.10
2024-05-09T14:17:53.381Z,6.13
2024-05-09T14:20:29.902Z,5.80
2024-05-09T14:22:58.812Z,4.82
2024-05-09T14:25:28.198Z,5.25
2024-05-09T14:27:55.032Z,4.90
2024-05-09T14:30:30.462Z,4.20
2024-05-09T14:33:03.383Z,5.45
2024-05-09T14:35:30.067Z,5.43
2024-05-09T14:37:56.773Z,5.55
2024-05-09T14:40:34.889Z,5.43
2024-05-09T14:43:06.649Z,5.40
2024-05-09T14:45:34.435Z,5.32
2024-05-09T14:48:01.578Z,4.63
2024-05-09T14:50:35.195Z,5.00
2024-05-09T14:53:06.389Z,5.22
2024-05-09T14:55:35.748Z,6.10
2024-05-09T14:58:03.352Z,6.40
2024-05-09T15:00:35.595Z,6.15
2024-05-09T15:03:03.694Z,5.85
2024-05-09T15:05:30.507Z,5.88
2024-05-09T15:07:58.018Z,5.53
2024-05-09T15:10:33.662Z,6.10
2024-05-09T15:13:02.867Z,5.57
2024-05-09T15:15:29.742Z,5.50
2024-05-09T15:17:56.715Z,5.50
2024-05-09T15:20:31.044Z,6.00
2024-05-09T15:23:01.956Z,6.35
2024-05-09T15:25:28.705Z,5.93
2024-05-09T15:27:55.530Z,5.97
2024-05-09T15:30:30.030Z,6.23
2024-05-09T15:33:01.223Z,5.83
2024-05-09T15:35:28.197Z,5.80
2024-05-09T15:37:55.322Z,5.50
2024-05-09T15:40:31.003Z,5.60
2024-05-09T15:43:05.400Z,4.88
2024-05-09T15:45:32.324Z,6.17
2024-05-09T15:47:59.710Z,5.90
2024-05-09T15:50:36.086Z,10.03
2024-05-09T15:53:07.912Z,6.30
2024-05-09T15:55:35.346Z,5.53
2024-05-09T15:58:03.454Z,5.28
2024-05-09T16:00:37.124Z,5.45
2024-05-09T16:03:07.739Z,4.85
2024-05-09T16:05:34.526Z,5.05
2024-05-09T16:08:02.712Z,4.68
2024-05-09T16:10:32.920Z,4.70
2024-05-09T16:13:01.919Z,4.70
2024-05-09T16:15:29.033Z,5.53
2024-05-09T16:17:56.320Z,5.53
2024-05-09T16:22:52.540Z,5.75
2024-05-09T16:25:19.201Z,5.50
2024-05-09T16:27:45.901Z,5.53
2024-05-09T16:30:20.955Z,7.03
2024-05-09T16:32:54.052Z,6.17
2024-05-09T16:35:20.583Z,5.77
2024-05-09T16:37:47.725Z,5.57
2024-05-09T16:40:22.152Z,6.00
2024-05-09T16:42:56.619Z,5.65
2024-05-09T16:45:23.168Z,6.10
2024-05-09T16:47:50.382Z,6.70
2024-05-09T16:50:25.718Z,6.07
2024-05-09T16:52:55.696Z,6.73
2024-05-09T16:55:22.324Z,6.57
2024-05-09T16:57:49.382Z,7.30
2024-05-09T17:00:25.214Z,6.97
2024-05-09T17:02:57.926Z,7.17
2024-05-09T17:05:24.662Z,7.33
2024-05-09T17:07:51.627Z,6.90
2024-05-09T17:10:26.525Z,6.60
2024-05-09T17:12:58.667Z,6.83
2024-05-09T17:15:25.664Z,6.77
2024-05-09T17:17:52.299Z,6.63
2024-05-09T17:20:26.102Z,6.73
2024-05-09T17:22:59.096Z,7.20
2024-05-09T17:25:25.573Z,6.60
2024-05-09T17:27:52.228Z,7.33
2024-05-09T17:30:28.556Z,6.87
2024-05-09T17:32:59.496Z,6.40
2024-05-09T17:35:26.036Z,6.17
2024-05-09T17:37:52.560Z,6.20
2024-05-09T17:40:27.888Z,5.77
2024-05-09T17:42:59.874Z,5.77
2024-05-09T17:45:26.439Z,5.97
2024-05-09T17:47:53.463Z,6.03
2024-05-09T17:50:27.366Z,7.27
2024-05-09T17:53:00.461Z,7.33
2024-05-09T17:55:27.509Z,6.70
2024-05-09T17:57:54.361Z,7.67
2024-05-09T18:00:29.284Z,6.90
2024-05-09T18:03:04.480Z,6.77
2024-05-09T18:05:31.583Z,6.60
2024-05-09T18:07:58.525Z,7.60
2024-05-09T18:10:32.827Z,7.67
2024-05-09T18:13:03.623Z,7.77
2024-05-09T18:15:30.165Z,8.83
2024-05-09T18:17:56.966Z,8.77
2024-05-09T18:20:33.087Z,9.63
2024-05-09T18:23:07.833Z,7.93
2024-05-09T18:26:17.283Z,8.00
2024-05-09T18:28:50.639Z,8.07
2024-05-09T18:31:48.152Z,8.00
2024-05-09T18:34:28.468Z,8.30
2024-05-09T18:37:35.047Z,7.90
2024-05-09T18:42:53.131Z,8.00
2024-05-09T18:45:19.673Z,7.63
2024-05-09T18:47:46.299Z,8.57
2024-05-09T18:50:20.428Z,7.83
2024-05-09T18:52:54.228Z,7.63
2024-05-09T18:55:20.770Z,7.57
2024-05-09T18:57:47.334Z,7.50
2024-05-09T19:00:26.615Z,7.80
2024-05-09T19:03:00.518Z,7.27
2024-05-09T19:05:27.606Z,7.83
2024-05-09T19:07:54.483Z,6.77
2024-05-09T19:10:23.054Z,7.23
2024-05-09T19:12:52.982Z,7.13
2024-05-09T19:15:19.497Z,7.40
2024-05-09T19:17:47.200Z,7.00
2024-05-09T19:20:24.796Z,7.07
2024-05-09T19:22:55.896Z,7.20
2024-05-09T19:25:22.449Z,7.63
2024-05-09T19:27:49.044Z,6.80
2024-05-09T19:30:25.313Z,7.57
2024-05-09T19:33:00.930Z,8.13
2024-05-09T19:35:27.495Z,7.93
2024-05-09T19:37:53.973Z,8.13
2024-05-09T19:40:28.635Z,7.93
2024-05-09T19:42:58.529Z,7.60
2024-05-09T19:45:26.084Z,7.70
2024-05-09T19:47:52.977Z,7.13
2024-05-09T19:50:26.138Z,7.20
2024-05-09T19:52:58.580Z,6.70
2024-05-09T19:55:25.192Z,7.70
2024-05-09T19:57:51.678Z,7.20
2024-05-09T20:00:25.858Z,7.60
2024-05-09T20:02:56.189Z,6.67
2024-05-09T20:05:23.647Z,6.87
2024-05-09T20:07:50.264Z,6.80
2024-05-09T20:10:23.680Z,6.67
2024-05-09T20:12:53.765Z,6.83
2024-05-09T20:15:20.536Z,6.33
2024-05-09T20:17:47.333Z,6.90
2024-05-09T20:20:24.546Z,6.37
2024-05-09T20:22:59.793Z,6.13
2024-05-09T20:25:26.311Z,6.20
2024-05-09T20:27:52.985Z,5.83
2024-05-09T20:30:28.585Z,6.40
2024-05-09T20:32:59.138Z,6.33
2024-05-09T20:35:26.382Z,6.20
2024-05-09T20:37:52.914Z,6.00
2024-05-09T20:40:28.232Z,6.20
2024-05-09T20:42:58.937Z,6.87
2024-05-09T20:45:27.074Z,5.97
2024-05-09T20:47:53.810Z,6.63
2024-05-09T20:50:29.153Z,6.63
2024-05-09T20:53:03.569Z,6.40
2024-05-09T20:55:30.454Z,6.30
2024-05-09T20:57:57.761Z,6.30
2024-05-09T21:00:33.857Z,6.40
2024-05-09T21:03:06.295Z,6.50
2024-05-09T21:05:33.720Z,7.00
2024-05-09T21:08:00.648Z,5.97
2024-05-09T21:10:31.555Z,7.10
2024-05-09T21:12:59.692Z,7.07
2024-05-09T21:15:26.205Z,6.83
2024-05-09T21:17:52.793Z,7.47
2024-05-09T21:20:24.293Z,7.20
2024-05-09T21:22:57.580Z,7.17
2024-05-09T21:25:24.143Z,7.67
2024-05-09T21:27:50.737Z,8.23
2024-05-09T21:30:26.748Z,8.13
2024-05-09T21:32:59.101Z,6.97
2024-05-09T21:35:25.786Z,7.60
2024-05-09T21:37:52.270Z,7.57
2024-05-09T21:40:26.918Z,8.23
2024-05-09T21:43:00.439Z,7.23
2024-05-09T21:45:27.215Z,8.70
2024-05-09T21:47:53.916Z,8.30
2024-05-09T21:50:27.601Z,8.73
2024-05-09T21:52:58.715Z,8.77
2024-05-09T21:55:25.268Z,8.40
2024-05-09T21:57:51.891Z,8.77
2024-05-09T22:00:28.576Z,8.53
2024-05-09T22:03:01.927Z,8.80
2024-05-09T22:05:28.593Z,8.90
2024-05-09T22:07:55.185Z,8.63
2024-05-09T22:10:26.495Z,8.73
2024-05-09T22:12:59.274Z,9.17
2024-05-09T22:15:25.990Z,9.20
2024-05-09T22:17:52.606Z,9.53
2024-05-09T22:20:26.027Z,9.17
2024-05-09T22:23:00.507Z,8.63
2024-05-09T22:25:29.688Z,8.90
2024-05-09T22:27:57.045Z,9.80
2024-05-09T22:30:31.186Z,9.87
2024-05-09T22:33:01.962Z,9.20
2024-05-09T22:35:28.577Z,9.87
2024-05-09T22:37:55.382Z,10.27
2024-05-09T22:40:29.522Z,10.33
2024-05-09T22:43:06.001Z,9.57
2024-05-09T22:45:32.817Z,9.57
2024-05-09T22:47:59.679Z,9.57
2024-05-09T22:50:30.537Z,10.20
2024-05-09T22:52:59.074Z,9.63
2024-05-09T22:55:25.591Z,10.10
2024-05-09T22:57:52.274Z,9.83
2024-05-09T23:00:22.045Z,9.53
2024-05-09T23:02:55.298Z,10.57
2024-05-09T23:05:22.109Z,9.70
2024-05-09T23:07:48.710Z,10.13
2024-05-09T23:10:21.363Z,10.70
2024-05-09T23:12:55.028Z,9.87
2024-05-09T23:15:21.870Z,10.00
2024-05-09T23:17:48.716Z,9.77
2024-05-09T23:20:21.634Z,9.77
2024-05-09T23:22:55.442Z,9.77
2024-05-09T23:25:22.002Z,9.53
2024-05-09T23:27:48.609Z,10.13
2024-05-09T23:30:25.538Z,9.17
2024-05-09T23:32:59.219Z,9.30
2024-05-09T23:35:25.837Z,8.83
2024-05-09T23:37:52.501Z,9.30
2024-05-09T23:40:22.861Z,9.20
2024-05-09T23:42:49.913Z,8.60
2024-05-09T23:45:17.524Z,9.57
2024-05-09T23:47:44.052Z,8.53
2024-05-09T23:50:16.828Z,9.07
2024-05-09T23:52:50.225Z,9.20
2024-05-09T23:55:16.861Z,9.40
2024-05-09T23:57:43.762Z,9.17
